Time;durP1;ratioP1;P1;durP2;ratioP2;P2;SDS_P1;SDS_P2;PMS_P1;PMS_P2;Temp;Humidity;BMP_temperature;BMP_pressure;BME280_temperature;BME280_humidity;BME280_pressure;Samples;Min_cycle;Max_cycle;Signal;HPM_P1;HPM_P2
2021/12/08 00:01:28;;;;;;;37.37;19.40;;;;;;;-0.61;82.14;100296.79;1755070;81;20980;-73
2021/12/08 00:03:55;;;;;;;33.97;18.90;;;;;;;-0.55;81.97;100299.40;1755178;81;21042;-74
2021/12/08 00:06:23;;;;;;;31.53;18.03;;;;;;;-0.55;81.86;100295.53;1698503;84;20980;-73
2021/12/08 00:09:17;;;;;;;37.60;19.23;;;;;;;-0.50;81.95;100289.11;1755129;81;20986;-72
2021/12/08 00:14:17;;;;;;;35.57;18.50;;;;;;;-0.48;81.59;100282.27;1698462;84;21020;-74
2021/12/08 00:16:43;;;;;;;37.27;19.10;;;;;;;-0.51;81.68;100281.81;1755849;80;20987;-72
2021/12/08 00:19:13;;;;;;;38.13;19.60;;;;;;;-0.50;81.68;100287.42;1698488;84;21482;-73
2021/12/08 00:21:40;;;;;;;39.20;19.37;;;;;;;-0.51;81.68;100283.10;1756151;81;21018;-73
2021/12/08 00:24:07;;;;;;;39.27;20.73;;;;;;;-0.50;81.66;100284.84;1755169;81;21491;-72
2021/12/08 00:26:35;;;;;;;35.40;18.90;;;;;;;-0.51;81.59;100272.80;1763570;80;20986;-73
2021/12/08 00:29:05;;;;;;;36.10;18.80;;;;;;;-0.52;81.58;100268.95;1782561;80;21005;-72
2021/12/08 00:31:33;;;;;;;35.20;17.97;;;;;;;-0.51;81.74;100262.94;1733618;82;21493;-72
2021/12/08 00:34:02;;;;;;;35.87;18.83;;;;;;;-0.48;81.75;100265.53;1782459;79;21057;-73
2021/12/08 00:36:40;;;;;;;39.83;19.73;;;;;;;-0.43;81.89;100264.28;1734186;82;21118;-73
2021/12/08 00:38:58;;;;;;;39.07;19.43;;;;;;;-0.42;81.89;100260.41;1780889;80;21022;-73
2021/12/08 00:41:25;;;;;;;40.73;20.23;;;;;;;-0.34;82.12;100244.57;1734344;82;21002;-73
2021/12/08 00:43:52;;;;;;;41.37;19.43;;;;;;;-0.33;81.87;100254.03;1782655;80;20990;-73
2021/12/08 00:46:19;;;;;;;37.23;20.00;;;;;;;-0.38;81.60;100251.00;1782703;80;21069;-73
2021/12/08 00:48:49;;;;;;;35.63;18.57;;;;;;;-0.38;81.74;100253.58;1782319;80;21123;-74
2021/12/08 00:51:17;;;;;;;41.50;19.37;;;;;;;-0.43;81.45;100250.97;1782659;78;21053;-74
2021/12/08 00:53:46;;;;;;;41.67;19.37;;;;;;;-0.46;81.51;100259.54;1734273;82;21428;-74
2021/12/08 00:56:15;;;;;;;37.40;20.30;;;;;;;-0.46;81.57;100264.69;1782453;80;21523;-73
2021/12/08 00:58:42;;;;;;;42.57;20.57;;;;;;;-0.44;81.71;100268.58;1782998;79;20994;-74
2021/12/08 01:01:12;;;;;;;39.13;20.30;;;;;;;-0.44;81.70;100263.42;1782604;79;21089;-73
2021/12/08 01:03:39;;;;;;;35.90;18.97;;;;;;;-0.43;81.66;100256.55;1782248;80;21487;-73
2021/12/08 01:06:06;;;;;;;38.77;19.83;;;;;;;-0.45;81.69;100247.09;1734423;82;20987;-74
2021/12/08 01:08:34;;;;;;;32.83;18.10;;;;;;;-0.46;81.58;100241.52;1781997;80;21005;-72
2021/12/08 01:11:12;;;;;;;38.23;18.50;;;;;;;-0.49;81.51;100238.07;1782612;80;21005;-72
2021/12/08 01:13:39;;;;;;;39.23;20.33;;;;;;;-0.49;81.65;100236.35;1781995;80;21158;-73
2021/12/08 01:16:07;;;;;;;38.10;19.57;;;;;;;-0.49;81.58;100231.20;1782530;80;21009;-72
2021/12/08 01:18:34;;;;;;;36.60;18.93;;;;;;;-0.47;81.83;100229.94;1782172;80;20970;-72
2021/12/08 01:21:06;;;;;;;36.77;19.00;;;;;;;-0.45;81.71;100226.48;1782442;80;21005;-72
2021/12/08 01:23:36;;;;;;;36.90;18.20;;;;;;;-0.48;81.60;100220.03;1734045;82;21034;-72
2021/12/08 01:26:05;;;;;;;35.73;18.27;;;;;;;-0.49;81.64;100217.05;1782014;80;21073;-74
2021/12/08 01:28:33;;;;;;;36.80;18.23;;;;;;;-0.49;81.73;100221.34;1734151;82;21065;-73
2021/12/08 01:31:02;;;;;;;34.37;18.40;;;;;;;-0.46;81.70;100217.48;1734115;82;21002;-72
2021/12/08 01:33:32;;;;;;;37.50;18.40;;;;;;;-0.48;81.57;100223.05;1734008;82;21089;-74
2021/12/08 01:35:58;;;;;;;34.97;18.20;;;;;;;-0.49;81.56;100221.34;1733901;82;21547;-73
2021/12/08 01:38:25;;;;;;;34.93;18.13;;;;;;;-0.50;81.56;100208.89;1733990;82;21124;-72
2021/12/08 01:40:52;;;;;;;32.20;17.97;;;;;;;-0.48;81.78;100205.02;1733908;82;20967;-72
2021/12/08 01:43:28;;;;;;;35.40;18.53;;;;;;;-0.45;81.77;100213.61;1734055;82;20991;-72
2021/12/08 01:46:02;;;;;;;35.57;17.27;;;;;;;-0.48;81.52;100208.89;1733853;82;21504;-74
2021/12/08 01:48:34;;;;;;;33.07;17.40;;;;;;;-0.52;81.55;100204.59;1733910;82;21451;-72
2021/12/08 01:51:07;;;;;;;33.00;17.67;;;;;;;-0.53;81.49;100197.70;1733632;82;21938;-72
2021/12/08 01:53:33;;;;;;;34.63;16.60;;;;;;;-0.57;81.46;100194.26;1734195;82;21468;-73
2021/12/08 01:56:01;;;;;;;37.87;17.07;;;;;;;-0.58;81.52;100196.41;1733985;82;21034;-73
2021/12/08 01:58:28;;;;;;;34.13;16.90;;;;;;;-0.55;81.67;100191.70;1734346;82;21047;-73
2021/12/08 02:01:00;;;;;;;34.70;17.57;;;;;;;-0.52;81.63;100188.70;1733967;82;21026;-72
2021/12/08 02:03:29;;;;;;;35.93;18.00;;;;;;;-0.49;81.70;100186.58;1734266;82;21204;-73
2021/12/08 02:05:57;;;;;;;32.47;17.37;;;;;;;-0.49;81.69;100178.42;1733918;82;21034;-73
2021/12/08 02:08:25;;;;;;;36.73;17.07;;;;;;;-0.52;81.52;100183.56;1734261;82;20980;-73
2021/12/08 02:10:54;;;;;;;30.97;16.37;;;;;;;-0.49;81.67;100175.84;1733939;82;22077;-72
2021/12/08 02:13:22;;;;;;;33.10;17.13;;;;;;;-0.48;81.64;100168.98;1734289;82;21527;-73
2021/12/08 02:15:49;;;;;;;31.63;16.20;;;;;;;-0.48;81.48;100172.84;1733983;82;22028;-73
2021/12/08 02:18:18;;;;;;;31.57;16.80;;;;;;;-0.49;81.55;100168.12;1734186;82;21018;-73
2021/12/08 02:20:48;;;;;;;32.77;17.50;;;;;;;-0.46;81.52;100164.27;1733963;82;21029;-73
2021/12/08 02:23:19;;;;;;;35.43;17.80;;;;;;;-0.46;81.48;100152.69;1734313;82;21440;-74
2021/12/08 02:25:49;;;;;;;34.50;17.52;;;;;;;-0.47;81.46;100148.83;1734054;82;21273;-72
2021/12/08 02:28:17;;;;;;;32.58;16.70;;;;;;;-0.48;81.46;100141.94;1754344;80;21743;-72
2021/12/08 02:47:27;;;;;;;41.67;20.03;;;;;;;-0.62;81.59;100119.16;1762944;81;21508;-73
2021/12/08 02:49:43;;;;;;;41.57;20.27;;;;;;;-0.64;81.56;100120.85;1761160;81;21023;-73
2021/12/08 02:52:13;;;;;;;37.10;19.47;;;;;;;-0.65;81.63;100112.28;1703292;84;20988;-72
2021/12/08 02:54:45;;;;;;;39.50;20.20;;;;;;;-0.66;81.60;100105.86;1763271;81;21133;-72
2021/12/08 02:57:15;;;;;;;42.00;21.20;;;;;;;-0.66;81.64;100104.57;1761553;81;21010;-73
2021/12/08 02:59:46;;;;;;;40.20;21.07;;;;;;;-0.66;81.80;100096.84;1763223;80;21014;-72
2021/12/08 03:02:15;;;;;;;41.03;20.00;;;;;;;-0.66;81.85;100089.98;1763045;80;22123;-73
2021/12/08 03:04:42;;;;;;;40.93;20.90;;;;;;;-0.66;81.79;100091.70;1763200;81;21276;-73
2021/12/08 03:07:09;;;;;;;40.37;20.17;;;;;;;-0.69;81.81;100083.11;1762755;81;22435;-73
2021/12/08 03:09:37;;;;;;;46.20;22.73;;;;;;;-0.69;81.82;100083.11;1703463;84;21011;-72
2021/12/08 03:12:05;;;;;;;41.00;20.27;;;;;;;-0.70;81.83;100081.80;1762841;81;21966;-73
2021/12/08 03:14:33;;;;;;;46.83;22.23;;;;;;;-0.71;81.94;100076.23;1763117;80;21014;-74
2021/12/08 03:17:05;;;;;;;42.43;21.30;;;;;;;-0.69;82.03;100070.23;1703450;84;21056;-72
2021/12/08 03:19:32;;;;;;;52.90;23.73;;;;;;;-0.68;81.97;100069.38;1763141;81;21923;-73
2021/12/08 03:22:03;;;;;;;55.20;23.73;;;;;;;-0.68;82.00;100059.51;1762677;80;21413;-73
2021/12/08 03:24:35;;;;;;;53.35;22.67;;;;;;;-0.70;81.94;100053.48;1703512;84;21030;-73
2021/12/08 03:29:40;;;;;;;49.30;24.45;;;;;;;-0.72;82.12;100039.75;1734331;82;21022;-73
2021/12/08 03:32:07;;;;;;;48.90;24.13;;;;;;;-0.71;82.01;100032.48;1769578;81;21090;-73
2021/12/08 03:34:38;;;;;;;50.83;24.03;;;;;;;-0.74;82.06;100028.18;1771190;81;21021;-72
2021/12/08 03:37:09;;;;;;;48.37;25.10;;;;;;;-0.76;81.99;100009.30;1771561;81;21495;-72
2021/12/08 03:39:42;;;;;;;46.43;22.40;;;;;;;-0.76;82.06;100007.16;1771401;81;21108;-73
2021/12/08 03:42:10;;;;;;;47.70;23.30;;;;;;;-0.77;82.06;99996.01;1781250;79;21044;-74
2021/12/08 03:44:38;;;;;;;49.03;23.93;;;;;;;-0.77;82.19;99992.14;1771485;81;21133;-72
2021/12/08 03:47:16;;;;;;;49.30;24.10;;;;;;;-0.77;82.21;99989.58;1771318;81;21029;-72
2021/12/08 03:49:47;;;;;;;52.00;24.00;;;;;;;-0.77;82.18;99989.58;1771261;81;21045;-72
2021/12/08 03:52:14;;;;;;;48.83;24.03;;;;;;;-0.77;82.18;99981.00;1771496;81;21053;-73
2021/12/08 03:54:41;;;;;;;50.00;22.70;;;;;;;-0.77;82.22;99983.14;1771395;81;21033;-72
2021/12/08 03:57:08;;;;;;;46.10;22.93;;;;;;;-0.75;82.24;99981.84;1771727;81;21170;-73
2021/12/08 03:59:36;;;;;;;51.40;23.63;;;;;;;-0.73;82.38;99977.13;1771318;81;20982;-73
2021/12/08 04:02:04;;;;;;;50.07;23.60;;;;;;;-0.74;82.14;99976.70;1771669;81;21052;-73
2021/12/08 04:04:40;;;;;;;46.67;23.90;;;;;;;-0.76;82.20;99972.41;1771230;81;21052;-73
2021/12/08 04:07:03;;;;;;;48.70;22.73;;;;;;;-0.75;82.20;99980.55;1770665;81;21371;-73
2021/12/08 04:09:38;;;;;;;48.70;23.77;;;;;;;-0.74;82.27;99980.57;1771406;81;21291;-73
2021/12/08 04:12:02;;;;;;;48.77;23.87;;;;;;;-0.74;82.23;99978.43;1770989;81;20956;-73
2021/12/08 04:14:34;;;;;;;45.67;23.13;;;;;;;-0.72;82.32;99970.26;1771288;81;21129;-73
2021/12/08 04:17:12;;;;;;;54.13;25.47;;;;;;;-0.70;82.42;99980.99;1771744;81;21569;-73
2021/12/08 04:19:42;;;;;;;48.57;23.80;;;;;;;-0.67;82.26;99986.58;1771403;81;21040;-74
2021/12/08 04:22:16;;;;;;;51.83;24.13;;;;;;;-0.72;82.21;99996.00;1771712;81;21111;-72
2021/12/08 04:24:48;;;;;;;49.03;22.53;;;;;;;-0.73;82.23;99989.14;1771252;81;21009;-73
2021/12/08 04:27:20;;;;;;;49.67;22.90;;;;;;;-0.73;82.34;99988.70;1772419;80;21562;-73
2021/12/08 04:29:49;;;;;;;52.70;24.73;;;;;;;-0.71;82.43;99994.73;1781889;80;21009;-72
2021/12/08 04:32:21;;;;;;;48.43;22.37;;;;;;;-0.69;82.34;99989.59;1782524;80;21060;-72
2021/12/08 04:34:53;;;;;;;50.43;24.20;;;;;;;-0.69;82.43;99981.44;1782187;80;21112;-72
2021/12/08 04:37:28;;;;;;;51.67;23.63;;;;;;;-0.66;82.33;99987.46;1782549;80;21065;-73
2021/12/08 04:42:58;;;;;;;54.67;24.57;;;;;;;-0.69;82.46;99994.31;1782600;79;21021;-73
2021/12/08 04:45:23;;;;;;;54.43;23.50;;;;;;;-0.69;82.35;99993.45;1780384;80;21479;-72
2021/12/08 04:48:07;;;;;;;50.90;24.43;;;;;;;-0.70;82.44;99995.14;1781522;80;21107;-73
2021/12/08 04:50:41;;;;;;;52.70;25.10;;;;;;;-0.70;82.47;100005.88;1778724;80;21503;-72
2021/12/08 04:53:22;;;;;;;50.63;23.83;;;;;;;-0.66;82.62;100003.76;1779821;80;20986;-73
2021/12/08 05:01:19;;;;;;;53.87;23.13;;;;;;;-0.60;82.58;100009.34;1782288;80;21144;-72
2021/12/08 05:06:43;;;;;;;48.13;22.63;;;;;;;-0.60;82.45;100009.34;1781091;80;21060;-72
2021/12/08 05:09:14;;;;;;;46.50;21.97;;;;;;;-0.62;82.46;100003.33;1781801;80;21525;-73
2021/12/08 05:11:46;;;;;;;53.03;21.70;;;;;;;-0.66;82.38;100008.05;1770575;80;20997;-73
2021/12/08 05:14:19;;;;;;;48.43;22.90;;;;;;;-0.65;82.36;100009.33;1782259;79;21097;-73
2021/12/08 05:16:50;;;;;;;47.90;22.73;;;;;;;-0.67;82.48;100003.30;1780576;80;21065;-72
2021/12/08 05:19:22;;;;;;;46.73;22.37;;;;;;;-0.67;82.41;99993.01;1782368;79;21021;-73
2021/12/08 05:21:57;;;;;;;47.53;22.10;;;;;;;-0.69;82.47;99984.02;1782271;80;21009;-73
2021/12/08 05:24:32;;;;;;;50.07;22.33;;;;;;;-0.69;82.45;99992.17;1781240;80;21020;-73
2021/12/08 05:27:22;;;;;;;48.40;22.33;;;;;;;-0.71;82.39;99983.58;1782136;79;21132;-73
2021/12/08 05:29:55;;;;;;;48.87;22.85;;;;;;;-0.73;82.42;99983.99;1782401;79;21447;-73
2021/12/08 05:32:22;;;;;;;51.13;22.40;;;;;;;-0.75;82.46;99982.72;1781792;79;20974;-73
2021/12/08 05:34:50;;;;;;;47.33;22.83;;;;;;;-0.76;82.50;99984.84;1782444;79;21024;-73
2021/12/08 05:37:21;;;;;;;48.53;21.90;;;;;;;-0.77;82.58;99979.28;1782252;80;21013;-73
2021/12/08 05:39:49;;;;;;;51.60;22.13;;;;;;;-0.76;82.74;99980.98;1782625;80;21111;-72
2021/12/08 05:42:21;;;;;;;51.13;23.97;;;;;;;-0.70;82.86;99989.14;1782225;79;21452;-73
2021/12/08 05:44:49;;;;;;;46.80;23.67;;;;;;;-0.70;82.77;99980.99;1782287;79;20933;-73
2021/12/08 05:47:21;;;;;;;48.57;23.77;;;;;;;-0.69;82.77;99984.02;1782127;79;21021;-73
2021/12/08 05:49:50;;;;;;;53.27;22.67;;;;;;;-0.70;82.70;99980.99;1782452;79;21567;-73
2021/12/08 05:52:17;;;;;;;47.60;22.87;;;;;;;-0.70;82.72;99983.56;1782263;79;21237;-73
2021/12/08 05:54:47;;;;;;;48.00;22.27;;;;;;;-0.68;82.79;99980.58;1782245;80;20990;-72
2021/12/08 05:57:19;;;;;;;47.25;22.25;;;;;;;-0.65;82.85;99972.44;1782330;80;20973;-72
2021/12/08 05:59:51;;;;;;;46.53;22.50;;;;;;;-0.65;82.80;99968.58;1782047;80;21014;-73
2021/12/08 06:02:27;;;;;;;48.43;22.37;;;;;;;-0.64;82.83;99976.28;1782274;79;21009;-73
2021/12/08 06:04:54;;;;;;;49.70;21.77;;;;;;;-0.66;82.77;99974.16;1781146;80;21118;-72
2021/12/08 06:07:22;;;;;;;43.93;22.73;;;;;;;-0.62;82.87;99974.58;1782075;79;21049;-73
2021/12/08 06:09:53;;;;;;;53.97;24.07;;;;;;;-0.62;82.82;99986.59;1782371;79;21009;-72
2021/12/08 06:12:21;;;;;;;48.17;22.17;;;;;;;-0.62;82.86;99984.88;1782168;79;20997;-72
2021/12/08 06:14:54;;;;;;;45.13;20.37;;;;;;;-0.64;82.69;99980.14;1782256;79;21056;-74
2021/12/08 06:17:18;;;;;;;46.37;21.30;;;;;;;-0.66;82.72;99987.03;1782182;80;21124;-73
2021/12/08 06:19:48;;;;;;;51.97;21.80;;;;;;;-0.69;82.81;99984.02;1782309;80;21049;-72
2021/12/08 06:22:19;;;;;;;46.93;22.17;;;;;;;-0.64;82.82;99983.16;1782102;79;21021;-73
2021/12/08 06:24:48;;;;;;;47.53;20.80;;;;;;;-0.61;82.93;99985.73;1782503;80;21013;-74
2021/12/08 06:27:15;;;;;;;50.10;23.40;;;;;;;-0.60;82.89;99988.31;1782102;80;21021;-73
2021/12/08 06:29:47;;;;;;;48.70;23.63;;;;;;;-0.60;82.74;99988.75;1777562;80;21129;-73
2021/12/08 06:32:16;;;;;;;51.97;23.00;;;;;;;-0.62;82.81;99982.30;1776887;80;21425;-74
2021/12/08 06:34:48;;;;;;;52.70;24.00;;;;;;;-0.62;82.77;99978.44;1776847;79;21024;-72
2021/12/08 06:37:20;;;;;;;50.47;20.83;;;;;;;-0.62;82.75;99974.58;1789069;79;21054;-73
2021/12/08 06:40:01;;;;;;;50.67;22.37;;;;;;;-0.62;82.83;99980.16;1777698;79;21011;-73
2021/12/08 06:42:33;;;;;;;48.30;21.33;;;;;;;-0.59;82.88;99976.30;1783127;79;21429;-73
2021/12/08 06:45:01;;;;;;;52.10;21.93;;;;;;;-0.60;82.73;99981.03;1804381;79;20973;-73
2021/12/08 06:47:30;;;;;;;56.83;23.80;;;;;;;-0.64;82.68;99981.43;1792039;78;21484;-73
2021/12/08 06:50:02;;;;;;;50.80;23.60;;;;;;;-0.65;82.73;99978.87;1785218;79;21061;-73
2021/12/08 06:52:37;;;;;;;55.13;24.50;;;;;;;-0.64;82.83;99987.01;1784050;78;21293;-73
2021/12/08 06:55:12;;;;;;;67.83;29.33;;;;;;;-0.63;82.80;99990.89;1776771;79;21128;-73
2021/12/08 06:57:44;;;;;;;60.53;27.60;;;;;;;-0.61;82.84;99993.45;1776800;79;21085;-73
2021/12/08 07:00:22;;;;;;;120.13;51.30;;;;;;;-0.62;82.83;99991.74;1775658;79;20966;-73
2021/12/08 07:02:55;;;;;;;60.03;26.40;;;;;;;-0.61;82.86;99986.61;1776727;79;20971;-73
2021/12/08 07:05:28;;;;;;;64.40;28.40;;;;;;;-0.60;82.84;99992.61;1776192;79;21013;-73
2021/12/08 07:07:57;;;;;;;58.03;24.43;;;;;;;-0.61;82.81;99987.90;1781489;78;21103;-73
2021/12/08 07:10:29;;;;;;;60.00;26.53;;;;;;;-0.59;82.77;99991.74;1776979;79;20974;-74
2021/12/08 07:13:02;;;;;;;48.20;24.20;;;;;;;-0.56;82.89;99993.03;1776980;79;21582;-73
2021/12/08 07:15:34;;;;;;;55.23;25.53;;;;;;;-0.54;82.89;99992.61;1777074;79;21006;-73
2021/12/08 07:18:09;;;;;;;54.97;23.93;;;;;;;-0.52;82.94;99986.61;1764649;79;21869;-73
2021/12/08 07:20:47;;;;;;;51.40;21.40;;;;;;;-0.48;82.78;99995.19;1760151;81;21127;-72
2021/12/08 07:23:23;;;;;;;52.97;24.20;;;;;;;-0.49;82.75;99990.91;1760500;80;20993;-73
2021/12/08 07:25:53;;;;;;;51.53;24.20;;;;;;;-0.49;82.74;99993.48;1760200;80;20970;-74
2021/12/08 07:28:24;;;;;;;53.25;24.12;;;;;;;-0.47;82.62;99996.93;1760287;81;21084;-73
2021/12/08 07:31:02;;;;;;;49.07;24.60;;;;;;;-0.46;82.61;99995.63;1760213;80;20997;-73
2021/12/08 07:33:30;;;;;;;48.90;21.60;;;;;;;-0.45;82.53;99996.48;1760487;81;21115;-73
2021/12/08 07:36:02;;;;;;;51.47;24.70;;;;;;;-0.47;82.29;99991.34;1760063;81;21018;-72
2021/12/08 07:38:32;;;;;;;48.50;23.57;;;;;;;-0.47;82.31;99998.22;1760388;81;21497;-72
2021/12/08 07:41:19;;;;;;;45.57;21.07;;;;;;;-0.46;82.16;100000.77;1763502;79;20998;-73
2021/12/08 07:43:51;;;;;;;40.63;20.63;;;;;;;-0.44;82.09;99995.64;1776661;79;20975;-73
2021/12/08 07:46:23;;;;;;;47.70;21.43;;;;;;;-0.42;82.14;99993.91;1776217;79;21205;-73
2021/12/08 07:49:02;;;;;;;46.80;21.73;;;;;;;-0.38;82.23;99999.94;1777130;79;20918;-76
2021/12/08 07:51:40;;;;;;;46.70;21.20;;;;;;;-0.37;82.25;99992.63;1776714;79;21550;-73
2021/12/08 07:54:09;;;;;;;48.03;21.57;;;;;;;-0.37;82.14;99992.63;1771086;80;21021;-74
2021/12/08 07:56:39;;;;;;;51.20;23.83;;;;;;;-0.35;82.25;99989.20;1777100;80;20978;-74
2021/12/08 07:59:11;;;;;;;49.25;21.85;;;;;;;-0.31;82.28;99994.77;1777428;80;27266;-73
2021/12/08 08:01:42;;;;;;;52.00;23.03;;;;;;;-0.29;82.15;99983.20;1777063;79;20987;-75
2021/12/08 08:04:16;;;;;;;51.27;21.63;;;;;;;-0.33;81.92;99978.92;1777348;80;20990;-73
2021/12/08 08:06:48;;;;;;;46.77;20.43;;;;;;;-0.37;81.89;99988.34;1777049;80;21042;-73
2021/12/08 08:09:21;;;;;;;45.97;22.13;;;;;;;-0.36;81.84;99991.77;1777342;80;21033;-72
2021/12/08 08:11:56;;;;;;;45.77;21.67;;;;;;;-0.34;81.94;99985.76;1777076;80;21449;-73
2021/12/08 08:14:27;;;;;;;46.13;21.30;;;;;;;-0.30;81.95;99990.50;1797693;79;20860;-74
2021/12/08 08:16:57;;;;;;;50.00;24.30;;;;;;;-0.29;81.95;99985.34;1780324;79;20980;-73
2021/12/08 08:19:28;;;;;;;49.53;23.37;;;;;;;-0.28;81.89;99987.48;1802574;79;21463;-79
2021/12/08 08:22:00;;;;;;;47.10;22.93;;;;;;;-0.28;81.90;99988.77;1808580;79;21003;-77
2021/12/08 08:24:28;;;;;;;50.20;21.90;;;;;;;-0.28;81.80;99992.23;1807991;78;21916;-81
2021/12/08 08:27:00;;;;;;;44.33;21.90;;;;;;;-0.28;81.86;99988.77;1808919;78;20995;-74
2021/12/08 08:29:28;;;;;;;47.93;21.37;;;;;;;-0.28;81.78;99990.05;1811522;78;21032;-75
2021/12/08 08:32:16;;;;;;;46.40;21.40;;;;;;;-0.30;81.64;99981.49;1814308;78;21520;-71
2021/12/08 08:34:44;;;;;;;44.90;20.40;;;;;;;-0.32;81.73;99991.78;1787338;78;20993;-77
2021/12/08 08:37:13;;;;;;;47.60;21.83;;;;;;;-0.33;81.65;99991.36;1782300;80;23134;-75
2021/12/08 08:39:48;;;;;;;49.40;23.27;;;;;;;-0.34;81.56;99980.61;1734357;82;21013;-74
2021/12/08 08:42:23;;;;;;;43.93;21.60;;;;;;;-0.38;81.41;99981.48;1781965;80;21057;-71
2021/12/08 08:45:01;;;;;;;48.07;25.03;;;;;;;-0.41;81.42;99984.48;1781432;80;21462;-73
2021/12/08 08:47:33;;;;;;;58.60;29.10;;;;;;;-0.42;81.49;99990.05;1734125;82;21006;-71
2021/12/08 08:50:01;;;;;;;51.93;26.00;;;;;;;-0.38;81.64;99973.75;1782338;80;21089;-71
2021/12/08 08:52:36;;;;;;;47.23;24.30;;;;;;;-0.41;81.29;99993.07;1733422;82;20967;-72
2021/12/08 08:55:10;;;;;;;54.10;26.33;;;;;;;-0.42;81.37;99991.33;1782294;79;21570;-72
2021/12/08 08:57:42;;;;;;;49.90;24.30;;;;;;;-0.42;81.31;99984.89;1781955;80;21010;-72
2021/12/08 09:00:20;;;;;;;52.10;25.17;;;;;;;-0.43;81.24;99979.77;1782015;80;21057;-74
2021/12/08 09:02:50;;;;;;;50.33;23.53;;;;;;;-0.43;81.23;99974.61;1752344;80;21922;-71
2021/12/08 09:05:25;;;;;;;45.85;21.80;;;;;;;-0.45;81.26;99960.00;1734379;82;21489;-72
2021/12/08 09:07:56;;;;;;;43.73;22.30;;;;;;;-0.42;81.34;99968.59;1782012;79;21013;-73
2021/12/08 09:10:28;;;;;;;48.83;23.13;;;;;;;-0.46;81.09;99966.02;1782515;80;21009;-78
2021/12/08 09:13:02;;;;;;;54.40;25.60;;;;;;;-0.49;81.03;99966.02;1782270;80;20985;-73
2021/12/08 09:15:40;;;;;;;48.83;23.73;;;;;;;-0.49;81.04;99959.58;1782541;80;21965;-74
2021/12/08 09:18:37;;;;;;;50.93;25.60;;;;;;;-0.49;80.90;99957.01;1792289;79;21010;-72
2021/12/08 09:21:15;;;;;;;47.93;24.03;;;;;;;-0.53;80.75;99969.43;1784396;79;21021;-73
2021/12/08 09:23:57;;;;;;;48.37;24.00;;;;;;;-0.56;80.70;99956.56;1732685;81;20941;-72
2021/12/08 09:26:27;;;;;;;44.70;21.13;;;;;;;-0.56;80.49;99954.42;1803008;79;21017;-72
2021/12/08 09:29:00;;;;;;;48.38;23.07;;;;;;;-0.57;80.63;99953.56;1782431;79;21171;-73
2021/12/08 09:31:35;;;;;;;50.30;23.70;;;;;;;-0.57;80.40;99954.86;1814219;78;21022;-72
2021/12/08 09:34:12;;;;;;;46.40;22.80;;;;;;;-0.58;80.52;99949.69;1814290;78;21010;-73
2021/12/08 09:36:50;;;;;;;45.70;20.87;;;;;;;-0.55;80.45;99945.86;1814667;79;21013;-71
2021/12/08 09:39:31;;;;;;;41.17;20.73;;;;;;;-0.57;80.40;99930.83;1814346;79;21001;-71
2021/12/08 09:42:07;;;;;;;46.40;22.03;;;;;;;-0.55;80.53;99924.83;1814576;78;21349;-70
2021/12/08 09:44:42;;;;;;;44.03;21.50;;;;;;;-0.48;80.57;99912.80;1809649;78;21058;-71
2021/12/08 09:47:10;;;;;;;45.30;22.33;;;;;;;-0.49;80.70;99902.09;1814665;78;21021;-69
2021/12/08 09:49:39;;;;;;;46.00;22.20;;;;;;;-0.47;80.61;99901.23;1814290;78;21013;-73
2021/12/08 09:52:08;;;;;;;54.20;24.07;;;;;;;-0.43;80.65;99890.94;1813942;78;20998;-71
2021/12/08 09:54:38;;;;;;;46.65;23.35;;;;;;;-0.46;80.53;99876.34;1814535;79;21110;-71
2021/12/08 09:57:12;;;;;;;51.60;24.95;;;;;;;-0.44;80.55;99887.51;1813972;79;21060;-72
2021/12/08 09:59:40;;;;;;;;;;;;;;;-0.45;80.38;99894.34;1816712;78;20978;-71
2021/12/08 10:02:08;;;;;;;45.73;22.77;;;;;;;-0.44;80.38;99887.51;1814095;79;20470;-71
2021/12/08 10:04:34;;;;;;;50.80;22.20;;;;;;;-0.41;80.63;99893.09;1814270;78;21472;-71
2021/12/08 10:07:03;;;;;;;50.47;23.97;;;;;;;-0.39;80.46;99878.47;1814453;79;21097;-71
2021/12/08 10:09:30;;;;;;;50.80;23.30;;;;;;;-0.35;80.50;99874.61;1814152;79;20982;-72
2021/12/08 10:11:57;;;;;;;48.47;24.07;;;;;;;-0.30;80.77;99878.48;1814525;78;21009;-71
2021/12/08 10:14:24;;;;;;;49.33;23.47;;;;;;;-0.28;80.47;99881.48;1814167;79;20978;-72
2021/12/08 10:16:55;;;;;;;53.73;26.40;;;;;;;-0.27;80.47;99879.33;1814493;79;21467;-71
2021/12/08 10:19:23;;;;;;;53.98;27.10;;;;;;;-0.25;80.49;99880.59;1814359;78;21127;-71
2021/12/08 10:21:50;;;;;;;50.73;25.00;;;;;;;-0.26;80.65;99897.77;1814570;78;20970;-71
2021/12/08 10:24:28;;;;;;;46.57;22.27;;;;;;;-0.25;80.62;99910.20;1814280;78;21065;-69
2021/12/08 10:27:08;;;;;;;41.67;20.53;;;;;;;-0.23;80.46;99905.48;1789116;78;21068;-71
2021/12/08 10:29:35;;;;;;;39.80;20.48;;;;;;;-0.30;80.08;99910.67;1796478;79;21036;-73
2021/12/08 10:32:04;;;;;;;41.00;19.77;;;;;;;-0.36;79.80;99913.22;1782173;79;21183;-75
2021/12/08 10:34:52;;;;;;;47.37;21.33;;;;;;;-0.40;79.80;99910.23;1781933;79;21004;-71
2021/12/08 10:37:18;;;;;;;41.03;20.93;;;;;;;-0.38;79.87;99905.95;1780760;80;20898;-76
2021/12/08 10:39:51;;;;;;;40.80;19.53;;;;;;;-0.37;79.85;99910.23;1782160;79;21072;-75
2021/12/08 10:42:29;;;;;;;37.83;18.80;;;;;;;-0.45;79.57;99916.66;1782028;80;21016;-75
2021/12/08 10:45:10;;;;;;;36.00;17.83;;;;;;;-0.50;79.52;99908.08;1782218;80;21126;-77
2021/12/08 10:47:53;;;;;;;34.60;17.63;;;;;;;-0.53;79.60;99902.50;1797034;79;21069;-79
2021/12/08 10:56:19;;;;;;;37.10;17.67;;;;;;;-0.55;79.85;99909.39;1814341;79;21010;-78
2021/12/08 10:58:53;;;;;;;44.17;18.27;;;;;;;-0.59;79.72;99895.22;1814553;79;21845;-76
2021/12/08 11:01:27;;;;;;;36.40;18.37;;;;;;;-0.56;79.89;99888.78;1814580;79;20887;-76
2021/12/08 11:04:04;;;;;;;36.83;18.57;;;;;;;-0.59;79.69;99884.48;1814557;78;21029;-76
2021/12/08 11:06:34;;;;;;;42.93;20.40;;;;;;;-0.63;79.68;99881.94;1814573;78;20963;-75
2021/12/08 11:09:06;;;;;;;34.80;17.37;;;;;;;-0.62;79.74;99884.92;1814633;78;21021;-76
2021/12/08 11:11:35;;;;;;;57.07;25.43;;;;;;;-0.63;79.68;99872.92;1814656;79;21262;-75
2021/12/08 11:14:05;;;;;;;39.93;18.90;;;;;;;-0.67;79.76;99868.19;1814283;79;20898;-76
2021/12/08 11:16:37;;;;;;;44.65;20.62;;;;;;;-0.66;79.82;99869.06;1814770;79;21009;-77
2021/12/08 11:19:13;;;;;;;37.93;18.97;;;;;;;-0.71;79.79;99862.19;1814405;79;21056;-76
2021/12/08 11:21:47;;;;;;;44.93;21.07;;;;;;;-0.67;79.98;99872.05;1814791;78;21041;-76
2021/12/08 11:24:35;;;;;;;44.07;20.30;;;;;;;-0.69;79.93;99869.48;1814365;78;21970;-76
2021/12/08 11:27:04;;;;;;;43.77;19.10;;;;;;;-0.69;79.92;99860.91;1814374;78;21010;-76
2021/12/08 11:29:36;;;;;;;48.43;21.77;;;;;;;-0.67;80.15;99856.60;1786950;78;21762;-76
2021/12/08 11:32:10;;;;;;;49.83;23.47;;;;;;;-0.66;79.90;99845.91;1766552;81;21070;-76
2021/12/08 11:34:44;;;;;;;46.43;21.67;;;;;;;-0.71;79.91;99854.47;1766216;81;21014;-75
2021/12/08 11:37:15;;;;;;;38.80;17.63;;;;;;;-0.71;79.97;99847.19;1765878;81;21135;-76
2021/12/08 11:39:47;;;;;;;44.97;21.03;;;;;;;-0.72;79.84;99833.47;1766379;81;21021;-76
2021/12/08 11:42:22;;;;;;;48.67;22.37;;;;;;;-0.73;79.92;99831.73;1766146;81;21009;-71
2021/12/08 11:44:54;;;;;;;39.70;19.30;;;;;;;-0.73;80.01;99826.58;1766081;81;21068;-74
2021/12/08 11:47:35;;;;;;;43.50;19.60;;;;;;;-0.73;80.01;99831.73;1766026;81;21014;-72
2021/12/08 11:50:13;;;;;;;47.00;20.93;;;;;;;-0.75;79.97;99822.29;1766355;81;21102;-75
2021/12/08 11:52:41;;;;;;;46.20;20.93;;;;;;;-0.75;80.06;99824.46;1766115;81;20982;-77
2021/12/08 11:55:13;;;;;;;41.97;19.73;;;;;;;-0.75;80.00;99825.75;1766296;81;21014;-79
2021/12/08 11:57:48;;;;;;;38.10;19.93;;;;;;;-0.78;79.94;99823.15;1765960;81;21057;-73
2021/12/08 12:00:30;;;;;;;40.00;18.27;;;;;;;-0.76;80.07;99823.16;1681215;83;21032;-75
2021/12/08 12:03:09;;;;;;;41.17;19.63;;;;;;;-0.75;80.22;99818.43;1728486;83;21125;-76
2021/12/08 12:05:41;;;;;;;42.33;19.70;;;;;;;-0.73;80.23;99812.42;1766515;80;21014;-75
2021/12/08 12:08:14;;;;;;;40.73;19.33;;;;;;;-0.73;80.05;99838.16;1765380;80;21023;-78
2021/12/08 12:10:45;;;;;;;41.40;18.40;;;;;;;-0.75;80.01;99823.17;1766387;81;21082;-72
2021/12/08 12:13:13;;;;;;;38.87;18.57;;;;;;;-0.73;80.04;99812.86;1766473;81;20990;-74